createdAt,value
2018-09-28T00:01:51.649Z,1.27
2018-09-28T00:04:20.828Z,1.70
2018-09-28T00:06:49.899Z,0.90
2018-09-28T00:09:19.029Z,2.40
2018-09-28T00:11:48.082Z,1.53
2018-09-28T00:14:17.206Z,1.70
2018-09-28T00:16:46.312Z,1.53
2018-09-28T00:19:15.414Z,1.40
2018-09-28T00:21:44.493Z,1.73
2018-09-28T00:24:13.706Z,1.40
2018-09-28T00:26:42.772Z,1.37
2018-09-28T00:29:11.887Z,1.23
2018-09-28T00:31:41.085Z,1.27
2018-09-28T00:34:10.196Z,1.43
2018-09-28T00:36:39.295Z,1.90
2018-09-28T00:39:09.200Z,1.40
2018-09-28T00:41:38.288Z,1.70
2018-09-28T00:44:07.445Z,1.97
2018-09-28T00:46:36.514Z,1.40
2018-09-28T00:49:05.637Z,1.63
2018-09-28T00:51:34.743Z,1.80
2018-09-28T00:54:03.821Z,1.90
2018-09-28T00:56:32.919Z,1.30
2018-09-28T00:59:02.024Z,2.00
2018-09-28T01:01:31.097Z,1.70
2018-09-28T01:04:00.223Z,1.30
2018-09-28T01:06:29.293Z,1.30
2018-09-28T01:08:58.405Z,2.00
2018-09-28T01:11:27.832Z,1.37
2018-09-28T01:13:56.932Z,1.63
2018-09-28T01:16:25.985Z,1.60
2018-09-28T01:18:55.100Z,1.80
2018-09-28T01:21:24.184Z,1.67
2018-09-28T01:23:53.319Z,1.20
2018-09-28T01:26:22.380Z,1.30
2018-09-28T01:28:51.559Z,1.53
2018-09-28T01:31:20.706Z,2.10
2018-09-28T01:33:49.890Z,1.20
2018-09-28T01:36:18.943Z,1.40
2018-09-28T01:38:48.166Z,1.60
2018-09-28T01:41:17.267Z,1.30
2018-09-28T01:43:52.798Z,1.63
2018-09-28T01:46:21.918Z,1.93
2018-09-28T01:48:51.059Z,1.43
2018-09-28T01:51:20.118Z,1.60
2018-09-28T01:53:49.336Z,1.70
2018-09-28T01:56:18.432Z,1.40
2018-09-28T01:58:47.613Z,1.40
2018-09-28T02:01:16.687Z,1.10
2018-09-28T02:03:45.834Z,1.10
2018-09-28T02:06:14.945Z,1.43
2018-09-28T02:08:44.058Z,2.17
2018-09-28T02:11:13.206Z,1.80
2018-09-28T02:13:42.329Z,1.60
2018-09-28T02:16:11.434Z,1.20
2018-09-28T02:18:40.614Z,1.40
2018-09-28T02:21:09.681Z,1.37
2018-09-28T02:23:38.777Z,2.00
2018-09-28T02:26:07.881Z,2.00
2018-09-28T02:28:37.016Z,1.73
2018-09-28T02:31:06.223Z,1.53
2018-09-28T02:33:35.364Z,1.67
2018-09-28T02:36:04.465Z,1.00
2018-09-28T02:38:33.605Z,1.57
2018-09-28T02:41:02.716Z,1.67
2018-09-28T02:43:31.900Z,1.60
2018-09-28T02:46:00.993Z,1.87
2018-09-28T02:48:30.179Z,1.63
2018-09-28T02:50:59.297Z,1.83
2018-09-28T02:53:28.426Z,1.83
2018-09-28T02:55:57.476Z,1.73
2018-09-28T02:58:26.588Z,2.03
2018-09-28T03:00:55.709Z,1.53
2018-09-28T03:03:24.851Z,2.07
2018-09-28T03:05:53.909Z,1.50
2018-09-28T03:08:23.012Z,1.47
2018-09-28T03:10:52.184Z,1.40
2018-09-28T03:13:21.325Z,1.67
2018-09-28T03:15:50.438Z,1.73
2018-09-28T03:18:19.612Z,2.40
2018-09-28T03:20:48.782Z,2.00
2018-09-28T03:23:17.984Z,1.33
2018-09-28T03:25:47.047Z,1.30
2018-09-28T03:28:16.264Z,1.27
2018-09-28T03:30:45.368Z,1.80
2018-09-28T03:33:14.492Z,2.07
2018-09-28T03:35:43.635Z,1.80
2018-09-28T03:38:12.721Z,1.40
2018-09-28T03:40:41.926Z,1.70
2018-09-28T03:43:11.035Z,1.83
2018-09-28T03:45:40.195Z,2.00
2018-09-28T03:48:09.277Z,1.27
2018-09-28T03:50:38.525Z,1.67
2018-09-28T03:53:07.631Z,2.20
2018-09-28T03:55:36.865Z,1.50
2018-09-28T03:58:05.975Z,1.70
2018-09-28T04:00:35.104Z,1.90
2018-09-28T04:03:04.297Z,1.60
2018-09-28T04:05:33.498Z,1.43
2018-09-28T04:08:02.640Z,1.73
2018-09-28T04:10:31.829Z,2.00
2018-09-28T04:13:00.938Z,1.67
2018-09-28T04:15:30.178Z,2.20
2018-09-28T04:17:59.262Z,1.37
2018-09-28T04:20:28.529Z,2.23
2018-09-28T04:22:57.604Z,1.80
2018-09-28T04:25:26.842Z,1.43
2018-09-28T04:27:55.949Z,1.70
2018-09-28T04:30:25.049Z,1.67
2018-09-28T04:32:54.156Z,1.60
2018-09-28T04:35:23.309Z,1.97
2018-09-28T04:37:52.430Z,2.30
2018-09-28T04:40:21.566Z,1.60
2018-09-28T04:42:50.742Z,1.83
2018-09-28T04:45:19.964Z,1.57
2018-09-28T04:47:49.032Z,2.13
2018-09-28T04:50:18.193Z,1.90
2018-09-28T04:52:47.285Z,1.37
2018-09-28T04:55:16.401Z,1.80
2018-09-28T04:57:45.444Z,1.90
2018-09-28T05:00:14.580Z,2.13
2018-09-28T05:02:43.673Z,2.27
2018-09-28T05:05:12.837Z,2.00
2018-09-28T05:07:41.953Z,2.43
2018-09-28T05:10:11.136Z,2.20
2018-09-28T05:12:40.244Z,1.53
2018-09-28T05:15:09.414Z,1.90
2018-09-28T05:17:38.534Z,1.77
2018-09-28T05:20:08.472Z,2.13
2018-09-28T05:22:37.782Z,2.13
2018-09-28T05:25:07.142Z,2.70
2018-09-28T05:27:36.369Z,2.13
2018-09-28T05:30:05.568Z,2.10
2018-09-28T05:32:34.909Z,1.83
2018-09-28T05:35:04.047Z,2.00
2018-09-28T05:37:33.207Z,2.40
2018-09-28T05:40:02.384Z,2.17
2018-09-28T05:42:31.485Z,2.10
2018-09-28T05:45:00.696Z,2.33
2018-09-28T05:47:29.866Z,2.57
2018-09-28T05:49:59.073Z,1.90
2018-09-28T05:52:28.186Z,2.10
2018-09-28T05:55:03.932Z,3.03
2018-09-28T05:57:33.085Z,3.17
2018-09-28T06:00:07.178Z,2.73
2018-09-28T06:02:41.359Z,2.53
2018-09-28T06:05:15.650Z,2.60
2018-09-28T06:07:44.770Z,2.70
2018-09-28T06:10:14.007Z,3.43
2018-09-28T06:12:43.876Z,3.07
2018-09-28T06:15:13.131Z,2.50
2018-09-28T06:17:42.241Z,2.90
2018-09-28T06:20:11.466Z,2.80
2018-09-28T06:22:40.591Z,2.80
2018-09-28T06:25:09.790Z,2.80
2018-09-28T06:27:38.929Z,3.00
2018-09-28T06:30:08.141Z,3.00
2018-09-28T06:32:37.297Z,2.87
2018-09-28T06:35:06.497Z,2.70
2018-09-28T06:37:36.536Z,2.50
2018-09-28T06:40:05.672Z,3.17
2018-09-28T06:42:34.768Z,2.90
2018-09-28T06:45:04.139Z,3.50
2018-09-28T06:47:33.242Z,2.80
2018-09-28T06:50:02.426Z,2.77
2018-09-28T06:52:31.569Z,2.83
2018-09-28T06:55:00.873Z,3.33
2018-09-28T06:57:30.201Z,3.43
2018-09-28T06:59:59.558Z,2.90
2018-09-28T07:02:29.134Z,3.57
2018-09-28T07:04:58.872Z,2.63
2018-09-28T07:07:28.049Z,3.47
2018-09-28T07:09:57.377Z,3.10
2018-09-28T07:12:26.668Z,3.40
2018-09-28T07:14:56.035Z,3.27
2018-09-28T07:17:25.588Z,3.30
2018-09-28T07:19:55.330Z,3.60
2018-09-28T07:22:24.902Z,3.37
2018-09-28T07:24:54.470Z,3.40
2018-09-28T07:27:23.824Z,3.73
2018-09-28T07:29:53.473Z,3.50
2018-09-28T07:32:23.055Z,3.30
2018-09-28T07:34:52.345Z,3.83
2018-09-28T07:37:21.635Z,3.50
2018-09-28T07:39:50.863Z,3.50
2018-09-28T07:42:20.153Z,3.90
2018-09-28T07:44:50.207Z,4.20
2018-09-28T07:47:19.716Z,2.90
2018-09-28T07:49:48.943Z,3.37
2018-09-28T07:52:18.743Z,3.70
2018-09-28T07:54:48.193Z,3.30
2018-09-28T07:57:17.712Z,3.23
2018-09-28T07:59:47.058Z,3.60
2018-09-28T08:02:16.547Z,3.73
2018-09-28T08:04:46.047Z,3.23
2018-09-28T08:07:15.549Z,4.10
2018-09-28T08:09:45.025Z,3.60
2018-09-28T08:12:14.578Z,3.43
2018-09-28T08:14:44.290Z,4.10
2018-09-28T08:17:13.800Z,3.40
2018-09-28T08:19:43.359Z,4.00
2018-09-28T08:22:12.710Z,4.17
2018-09-28T08:24:42.138Z,4.03
2018-09-28T08:27:11.407Z,3.70
2018-09-28T08:29:40.548Z,3.97
2018-09-28T08:32:09.874Z,4.93
2018-09-28T08:34:39.146Z,3.73
2018-09-28T08:37:08.399Z,4.60
2018-09-28T08:39:37.641Z,5.30
2018-09-28T08:42:07.179Z,3.87
2018-09-28T08:44:36.696Z,3.70
2018-09-28T08:47:06.077Z,5.07
2018-09-28T08:49:35.282Z,5.37
2018-09-28T08:52:04.509Z,4.40
2018-09-28T08:54:33.676Z,4.97
2018-09-28T08:57:02.882Z,4.00
2018-09-28T08:59:31.993Z,5.10
2018-09-28T09:02:01.279Z,4.90
2018-09-28T09:04:30.489Z,5.80
2018-09-28T09:06:59.716Z,5.37
2018-09-28T09:09:28.995Z,6.10
2018-09-28T09:11:58.277Z,5.77
2018-09-28T09:14:28.758Z,5.20
2018-09-28T09:16:57.996Z,5.07
2018-09-28T09:19:27.264Z,4.57
2018-09-28T09:21:56.498Z,5.57
2018-09-28T09:24:25.675Z,5.13
2018-09-28T09:26:54.991Z,5.10
2018-09-28T09:29:24.177Z,5.43
2018-09-28T09:31:53.465Z,5.30
2018-09-28T09:34:22.751Z,5.70
2018-09-28T09:36:52.052Z,4.60
2018-09-28T09:39:21.265Z,4.57
2018-09-28T09:41:50.481Z,5.33
2018-09-28T09:44:19.710Z,5.10
2018-09-28T09:46:49.004Z,4.60
2018-09-28T09:49:18.203Z,5.00
2018-09-28T09:51:47.476Z,4.87
2018-09-28T09:54:16.666Z,4.60
2018-09-28T09:56:45.871Z,4.30
2018-09-28T09:59:15.067Z,4.23
2018-09-28T10:01:49.193Z,4.77
2018-09-28T10:04:18.372Z,3.83
2018-09-28T10:06:47.602Z,4.70
2018-09-28T10:09:16.701Z,3.97
2018-09-28T10:11:45.876Z,3.37
2018-09-28T10:14:15.098Z,4.50
2018-09-28T10:16:44.379Z,4.17
2018-09-28T10:19:13.540Z,3.77
2018-09-28T10:21:42.750Z,3.37
2018-09-28T10:24:11.959Z,3.17
2018-09-28T10:26:41.181Z,3.23
2018-09-28T10:29:10.362Z,2.97
2018-09-28T10:31:39.543Z,3.60
2018-09-28T10:34:08.633Z,2.67
2018-09-28T10:36:37.873Z,2.97
2018-09-28T10:39:08.491Z,2.97
2018-09-28T10:41:37.700Z,3.03
2018-09-28T10:44:07.085Z,3.80
2018-09-28T10:46:36.379Z,3.23
2018-09-28T10:49:05.619Z,2.77
2018-09-28T10:51:34.909Z,2.70
2018-09-28T10:54:04.062Z,2.90
2018-09-28T10:56:33.253Z,4.07
2018-09-28T10:59:02.430Z,3.20
2018-09-28T11:01:31.703Z,3.00
2018-09-28T11:04:00.946Z,2.67
2018-09-28T11:06:30.241Z,2.50
2018-09-28T11:08:59.448Z,2.83
2018-09-28T11:11:28.761Z,3.10
2018-09-28T11:13:58.008Z,3.80
2018-09-28T11:16:27.320Z,2.90
2018-09-28T11:18:56.877Z,3.30
2018-09-28T11:21:26.296Z,2.30
2018-09-28T11:23:55.410Z,2.50
2018-09-28T11:26:24.752Z,1.93
2018-09-28T11:28:54.169Z,2.17
2018-09-28T11:31:23.488Z,2.07
2018-09-28T11:33:52.725Z,1.73
2018-09-28T11:36:22.057Z,1.80
2018-09-28T11:38:51.270Z,1.83
2018-09-28T11:41:20.488Z,2.90
2018-09-28T11:43:49.788Z,2.00
2018-09-28T11:46:18.998Z,2.40
2018-09-28T11:48:48.168Z,3.00
2018-09-28T11:51:17.312Z,2.30
2018-09-28T11:53:46.508Z,2.47
2018-09-28T11:56:15.668Z,2.47
2018-09-28T11:58:44.973Z,3.10
2018-09-28T12:01:14.193Z,2.70
2018-09-28T12:03:43.370Z,2.30
2018-09-28T12:06:12.646Z,2.10
2018-09-28T12:08:41.840Z,1.90
2018-09-28T12:11:11.070Z,1.30
2018-09-28T12:13:40.397Z,1.97
2018-09-28T12:16:09.687Z,1.70
2018-09-28T12:18:38.999Z,1.83
2018-09-28T12:21:08.201Z,2.37
2018-09-28T12:23:37.580Z,1.77
2018-09-28T12:26:07.874Z,1.57
2018-09-28T12:28:37.044Z,2.00
2018-09-28T12:31:06.203Z,2.70
2018-09-28T12:33:35.530Z,2.00
2018-09-28T12:36:04.762Z,2.07
2018-09-28T12:38:33.916Z,2.40
2018-09-28T12:41:03.124Z,2.67
2018-09-28T12:43:35.034Z,2.77
2018-09-28T12:46:01.506Z,1.97
2018-09-28T12:48:30.820Z,2.63
2018-09-28T12:50:59.939Z,2.10
2018-09-28T12:53:29.126Z,1.80
2018-09-28T12:55:58.244Z,2.17
2018-09-28T12:58:27.540Z,2.30
2018-09-28T13:00:56.774Z,2.07
2018-09-28T13:03:25.959Z,2.20
2018-09-28T13:05:55.170Z,2.10
2018-09-28T13:08:24.523Z,2.30
2018-09-28T13:10:53.617Z,2.53
2018-09-28T13:13:22.901Z,2.77
2018-09-28T13:15:52.138Z,1.87
2018-09-28T13:18:21.331Z,2.10
2018-09-28T13:20:50.822Z,2.27
2018-09-28T13:23:20.440Z,1.80
2018-09-28T13:25:49.653Z,1.70
2018-09-28T13:28:19.311Z,1.70
2018-09-28T13:30:48.555Z,1.73
2018-09-28T13:33:18.064Z,2.17
2018-09-28T13:35:49.196Z,1.77
2018-09-28T13:38:18.954Z,1.90
2018-09-28T13:40:48.479Z,1.90
2018-09-28T13:43:17.823Z,2.07
2018-09-28T13:45:47.423Z,2.03
2018-09-28T13:48:18.190Z,2.33
2018-09-28T13:50:47.555Z,2.43
2018-09-28T13:53:16.854Z,2.37
2018-09-28T13:55:46.025Z,2.30
2018-09-28T13:58:15.703Z,2.10
2018-09-28T14:00:45.055Z,2.30
2018-09-28T14:03:14.501Z,2.23
2018-09-28T14:05:44.416Z,1.80
2018-09-28T14:08:14.216Z,1.73
2018-09-28T14:10:43.670Z,2.27
2018-09-28T14:13:13.023Z,1.60
2018-09-28T14:15:42.302Z,1.63
2018-09-28T14:18:12.521Z,2.10
2018-09-28T14:20:42.117Z,2.10
2018-09-28T14:23:11.668Z,1.70
2018-09-28T14:25:41.094Z,1.80
2018-09-28T14:28:10.361Z,2.13
2018-09-28T14:30:39.602Z,2.10
2018-09-28T14:33:08.905Z,2.00
2018-09-28T14:35:41.959Z,2.50
2018-09-28T14:38:11.286Z,2.90
2018-09-28T14:40:40.622Z,2.90
2018-09-28T14:43:09.982Z,2.80
2018-09-28T14:45:39.336Z,3.73
2018-09-28T14:48:09.114Z,4.20
2018-09-28T14:50:38.746Z,4.67
2018-09-28T14:53:08.998Z,3.30
2018-09-28T14:55:38.596Z,4.77
2018-09-28T14:58:07.838Z,4.70
2018-09-28T15:00:37.226Z,4.60
2018-09-28T15:03:06.606Z,4.90
2018-09-28T15:05:36.096Z,5.20
2018-09-28T15:08:05.431Z,6.17
2018-09-28T15:10:34.823Z,4.70
2018-09-28T15:13:04.344Z,4.47
2018-09-28T15:15:33.664Z,4.87
2018-09-28T15:18:02.896Z,5.77
2018-09-28T15:20:33.729Z,4.73
2018-09-28T15:23:03.115Z,4.40
2018-09-28T15:25:32.459Z,5.37
2018-09-28T15:28:02.016Z,5.63
2018-09-28T15:30:31.370Z,4.83
2018-09-28T15:33:01.214Z,4.73
2018-09-28T15:35:30.559Z,4.33
2018-09-28T15:37:59.867Z,4.80
2018-09-28T15:40:29.287Z,3.57
2018-09-28T15:42:58.795Z,4.43
2018-09-28T15:45:28.906Z,4.63
2018-09-28T15:47:58.332Z,4.43
2018-09-28T15:50:28.439Z,3.80
2018-09-28T15:52:58.433Z,3.30
2018-09-28T15:55:27.836Z,2.77
2018-09-28T15:57:58.231Z,3.83
2018-09-28T16:00:28.424Z,2.73
2018-09-28T16:03:00.067Z,1.40
2018-09-28T16:05:29.479Z,2.00
2018-09-28T16:07:59.332Z,1.90
2018-09-28T16:10:28.917Z,1.30
2018-09-28T16:12:58.602Z,1.30
2018-09-28T16:15:28.146Z,1.00
2018-09-28T16:18:04.114Z,1.37
2018-09-28T16:20:38.976Z,1.50
2018-09-28T16:23:09.142Z,1.57
2018-09-28T16:25:42.737Z,2.30
2018-09-28T16:28:12.574Z,1.40
2018-09-28T16:30:43.796Z,1.60
2018-09-28T16:33:13.905Z,1.23
2018-09-28T16:35:44.233Z,1.70
2018-09-28T16:38:13.758Z,1.33
2018-09-28T16:40:44.595Z,1.30
2018-09-28T16:43:14.165Z,1.60
2018-09-28T16:45:44.665Z,1.43
2018-09-28T16:48:15.406Z,1.20
2018-09-28T16:50:46.937Z,1.10
2018-09-28T16:53:16.867Z,1.00
2018-09-28T16:55:53.509Z,0.73
2018-09-28T16:58:26.279Z,1.13
2018-09-28T17:00:56.665Z,0.90
2018-09-28T17:03:27.814Z,0.93
2018-09-28T17:05:59.295Z,1.27
2018-09-28T17:08:30.831Z,0.90
2018-09-28T17:11:01.071Z,0.90
2018-09-28T17:13:31.366Z,1.00
2018-09-28T17:16:02.503Z,0.97
2018-09-28T17:18:32.817Z,0.80
2018-09-28T17:21:02.893Z,0.80
2018-09-28T17:23:32.976Z,0.90
2018-09-28T17:26:03.765Z,1.40
2018-09-28T17:28:33.986Z,1.13
2018-09-28T17:31:04.423Z,1.60
2018-09-28T17:33:34.580Z,0.80
2018-09-28T17:36:04.784Z,0.97
2018-09-28T17:38:33.991Z,0.90
2018-09-28T17:41:03.515Z,0.80
2018-09-28T17:43:33.501Z,0.80
2018-09-28T17:46:02.828Z,0.80
2018-09-28T17:48:32.126Z,0.70
2018-09-28T17:51:01.492Z,1.80
2018-09-28T17:53:30.727Z,0.80
2018-09-28T17:56:00.102Z,0.87
2018-09-28T17:58:30.426Z,0.87
2018-09-28T18:01:00.186Z,0.60
2018-09-28T18:03:29.499Z,0.80
2018-09-28T18:05:58.772Z,0.83
2018-09-28T18:08:28.037Z,0.60
2018-09-28T18:10:57.322Z,1.00
2018-09-28T18:13:26.530Z,1.70
2018-09-28T18:15:55.766Z,0.80
2018-09-28T18:18:30.424Z,1.10
2018-09-28T18:20:59.710Z,0.70
2018-09-28T18:23:28.954Z,1.00
2018-09-28T18:25:58.208Z,0.83
2018-09-28T18:28:27.479Z,1.00
2018-09-28T18:30:56.794Z,0.80
2018-09-28T18:33:26.057Z,0.87
2018-09-28T18:35:55.419Z,0.70
2018-09-28T18:38:24.609Z,1.00
2018-09-28T18:40:53.944Z,0.60
2018-09-28T18:43:23.139Z,0.80
2018-09-28T18:45:52.663Z,1.33
2018-09-28T18:48:21.973Z,0.83
2018-09-28T18:51:08.826Z,0.97
2018-09-28T18:53:38.143Z,1.43
2018-09-28T18:56:07.650Z,1.10
2018-09-28T18:58:36.914Z,1.17
2018-09-28T19:01:06.227Z,1.10
2018-09-28T19:03:35.442Z,2.10
2018-09-28T19:06:04.939Z,1.10
2018-09-28T19:08:34.247Z,1.40
2018-09-28T19:11:03.528Z,1.13
2018-09-28T19:13:32.786Z,0.97
2018-09-28T19:16:02.099Z,1.40
2018-09-28T19:18:31.265Z,0.70
2018-09-28T19:21:00.578Z,1.10
2018-09-28T19:23:29.877Z,1.07
2018-09-28T19:25:59.045Z,1.00
2018-09-28T19:28:28.318Z,1.20
2018-09-28T19:30:57.793Z,0.73
2018-09-28T19:33:26.920Z,1.03
2018-09-28T19:35:58.688Z,0.80
2018-09-28T19:38:28.089Z,1.30
2018-09-28T19:40:57.395Z,1.53
2018-09-28T19:43:26.834Z,1.30
2018-09-28T19:45:56.829Z,1.00
2018-09-28T19:48:26.918Z,0.80
2018-09-28T19:50:56.432Z,0.63
2018-09-28T19:53:25.691Z,0.80
2018-09-28T19:55:55.271Z,1.20
2018-09-28T19:58:24.598Z,1.87
2018-09-28T20:00:53.815Z,0.70
2018-09-28T20:03:23.244Z,0.80
2018-09-28T20:05:52.454Z,0.90
2018-09-28T20:08:21.727Z,1.07
2018-09-28T20:10:50.982Z,0.80
2018-09-28T20:13:20.286Z,1.40
2018-09-28T20:15:49.428Z,0.83
2018-09-28T20:18:18.697Z,0.70
2018-09-28T20:20:48.058Z,1.60
2018-09-28T20:23:17.294Z,0.80
2018-09-28T20:25:46.538Z,1.03
2018-09-28T20:28:15.769Z,0.93
2018-09-28T20:30:46.246Z,1.07
2018-09-28T20:33:15.527Z,0.90
2018-09-28T20:35:44.747Z,1.17
2018-09-28T20:38:14.017Z,0.93
2018-09-28T20:40:43.173Z,0.57
2018-09-28T20:43:12.440Z,0.70
2018-09-28T20:45:41.564Z,0.80
2018-09-28T20:48:10.809Z,1.47
2018-09-28T20:50:40.085Z,1.27
2018-09-28T20:53:09.250Z,0.87
2018-09-28T20:55:38.427Z,0.80
2018-09-28T20:58:07.685Z,0.80
2018-09-28T21:00:36.908Z,0.63
2018-09-28T21:03:06.270Z,1.03
2018-09-28T21:05:35.720Z,0.80
2018-09-28T21:08:04.858Z,1.80
2018-09-28T21:10:34.077Z,0.80
2018-09-28T21:13:03.316Z,0.90
2018-09-28T21:15:32.475Z,0.70
2018-09-28T21:18:01.711Z,0.87
2018-09-28T21:20:31.026Z,1.00
2018-09-28T21:23:00.287Z,0.80
2018-09-28T21:25:29.458Z,0.80
2018-09-28T21:27:58.649Z,0.80
2018-09-28T21:30:27.862Z,0.80
2018-09-28T21:32:57.069Z,0.70
2018-09-28T21:35:26.262Z,0.67
2018-09-28T21:37:55.533Z,1.10
2018-09-28T21:40:24.712Z,1.20
2018-09-28T21:42:53.922Z,0.83
2018-09-28T21:45:23.081Z,0.80
2018-09-28T21:47:52.355Z,0.83
2018-09-28T21:50:21.476Z,0.70
2018-09-28T21:52:50.638Z,0.90
2018-09-28T21:55:20.357Z,0.83
2018-09-28T21:57:49.492Z,1.20
2018-09-28T22:00:19.047Z,0.80
2018-09-28T22:02:48.301Z,0.90
2018-09-28T22:05:17.724Z,0.80
2018-09-28T22:07:46.846Z,1.10
2018-09-28T22:10:16.200Z,0.40
2018-09-28T22:12:45.437Z,0.93
2018-09-28T22:15:14.781Z,1.00
2018-09-28T22:17:43.969Z,0.70
2018-09-28T22:20:13.210Z,0.77
2018-09-28T22:22:42.545Z,1.00
2018-09-28T22:25:11.893Z,0.73
2018-09-28T22:27:41.088Z,0.80
2018-09-28T22:30:10.375Z,0.87
2018-09-28T22:32:39.997Z,0.67
2018-09-28T22:35:09.183Z,0.50
2018-09-28T22:37:38.369Z,1.13
2018-09-28T22:40:07.488Z,1.80
2018-09-28T22:47:22.929Z,0.80
2018-09-28T22:49:52.348Z,0.50
2018-09-28T22:52:21.578Z,0.50
2018-09-28T22:54:50.888Z,0.70
2018-09-28T22:57:20.146Z,1.30
2018-09-28T22:59:49.446Z,0.80
2018-09-28T23:02:18.705Z,0.50
2018-09-28T23:04:47.968Z,0.80
2018-09-28T23:07:17.198Z,0.50
2018-09-28T23:09:46.418Z,0.50
2018-09-28T23:12:15.532Z,0.67
2018-09-28T23:14:44.841Z,0.50
2018-09-28T23:17:14.127Z,0.93
2018-09-28T23:19:43.437Z,0.50
2018-09-28T23:22:12.828Z,0.80
2018-09-28T23:24:42.140Z,0.53
2018-09-28T23:27:11.325Z,0.93
2018-09-28T23:29:40.752Z,0.50
2018-09-28T23:32:10.044Z,0.50
2018-09-28T23:34:39.328Z,0.87
2018-09-28T23:37:08.581Z,0.93
2018-09-28T23:39:38.306Z,0.70
2018-09-28T23:42:07.543Z,0.50
2018-09-28T23:44:36.786Z,0.93
2018-09-28T23:47:06.141Z,0.50
2018-09-28T23:49:35.416Z,0.90
2018-09-28T23:52:04.653Z,1.17
2018-09-28T23:54:33.901Z,0.70
2018-09-28T23:57:03.247Z,0.70
2018-09-28T23:59:32.520Z,0.60
